<?xml version="1.0" encoding="UTF-8"?>
<gpx creator="Wikiloc - https://www.wikiloc.com" version="1.1" xmlns="http://www.topografix.com/GPX/1/1" xmlns:xsi="http://www.w3.org/2001/XMLSchema-instance" xsi:schemaLocation="http://www.topografix.com/GPX/1/1 http://www.topografix.com/GPX/1/1/gpx.xsd">
  <metadata>
    <name>Wikiloc - Sendero del Vino: Montalbo</name>
    <link href="https://www.wikiloc.com/hiking-trails/sendero-del-vino-montalbo-5909875">
      <text>Sendero del Vino: Montalbo on Wikiloc</text>
    </link>
    <time>2014-01-07T17:38:35Z</time>
  </metadata>
  <trk>
    <name>Sendero del Vino: Montalbo</name>
    <cmt></cmt>
    <desc></desc>
    <trkseg>
      <trkpt lat="42.498828" lon="-2.747177">
        <ele>520.534</ele>
        <time>2014-01-07T12:31:55Z</time>
      </trkpt>
      <trkpt lat="42.500648" lon="-2.744896">
        <ele>512.455</ele>
        <time>2014-01-07T12:35:15Z</time>
      </trkpt>
      <trkpt lat="42.501618" lon="-2.744186">
        <ele>512.010</ele>
        <time>2014-01-07T12:36:15Z</time>
      </trkpt>
      <trkpt lat="42.502198" lon="-2.743356">
        <ele>513.807</ele>
        <time>2014-01-07T12:36:55Z</time>
      </trkpt>
      <trkpt lat="42.502518" lon="-2.742556">
        <ele>513.918</ele>
        <time>2014-01-07T12:47:15Z</time>
      </trkpt>
      <trkpt lat="42.502558" lon="-2.742796">
        <ele>513.682</ele>
        <time>2014-01-07T12:50:55Z</time>
      </trkpt>
      <trkpt lat="42.500908" lon="-2.741097">
        <ele>511.793</ele>
        <time>2014-01-07T12:52:35Z</time>
      </trkpt>
      <trkpt lat="42.500288" lon="-2.739727">
        <ele>502.082</ele>
        <time>2014-01-07T12:53:15Z</time>
      </trkpt>
      <trkpt lat="42.500368" lon="-2.740007">
        <ele>503.041</ele>
        <time>2014-01-07T12:53:55Z</time>
      </trkpt>
      <trkpt lat="42.499898" lon="-2.738567">
        <ele>495.060</ele>
        <time>2014-01-07T13:09:15Z</time>
      </trkpt>
      <trkpt lat="42.500418" lon="-2.736527">
        <ele>488.068</ele>
        <time>2014-01-07T13:10:55Z</time>
      </trkpt>
      <trkpt lat="42.500778" lon="-2.736057">
        <ele>483.834</ele>
        <time>2014-01-07T13:11:35Z</time>
      </trkpt>
      <trkpt lat="42.501208" lon="-2.734877">
        <ele>478.455</ele>
        <time>2014-01-07T13:12:35Z</time>
      </trkpt>
      <trkpt lat="42.501358" lon="-2.733007">
        <ele>472.310</ele>
        <time>2014-01-07T13:27:15Z</time>
      </trkpt>
      <trkpt lat="42.501808" lon="-2.731897">
        <ele>466.007</ele>
        <time>2014-01-07T13:32:55Z</time>
      </trkpt>
      <trkpt lat="42.500418" lon="-2.729577">
        <ele>465.348</ele>
        <time>2014-01-07T13:38:55Z</time>
      </trkpt>
      <trkpt lat="42.499748" lon="-2.727907">
        <ele>458.232</ele>
        <time>2014-01-07T13:39:55Z</time>
      </trkpt>
      <trkpt lat="42.499388" lon="-2.727457">
        <ele>458.863</ele>
        <time>2014-01-07T13:40:35Z</time>
      </trkpt>
      <trkpt lat="42.498718" lon="-2.727257">
        <ele>457.912</ele>
        <time>2014-01-07T13:40:55Z</time>
      </trkpt>
      <trkpt lat="42.497948" lon="-2.725157">
        <ele>455.221</ele>
        <time>2014-01-07T13:41:55Z</time>
      </trkpt>
      <trkpt lat="42.498478" lon="-2.724367">
        <ele>455.540</ele>
        <time>2014-01-07T13:42:35Z</time>
      </trkpt>
      <trkpt lat="42.497758" lon="-2.722437">
        <ele>453.258</ele>
        <time>2014-01-07T13:47:15Z</time>
      </trkpt>
      <trkpt lat="42.496448" lon="-2.716897">
        <ele>443.488</ele>
        <time>2014-01-07T13:56:35Z</time>
      </trkpt>
      <trkpt lat="42.495518" lon="-2.714837">
        <ele>441.924</ele>
        <time>2014-01-07T13:57:35Z</time>
      </trkpt>
      <trkpt lat="42.494968" lon="-2.712927">
        <ele>442.626</ele>
        <time>2014-01-07T13:58:35Z</time>
      </trkpt>
      <trkpt lat="42.495028" lon="-2.712407">
        <ele>444.107</ele>
        <time>2014-01-07T14:13:35Z</time>
      </trkpt>
      <trkpt lat="42.495458" lon="-2.711277">
        <ele>444.173</ele>
        <time>2014-01-07T14:14:15Z</time>
      </trkpt>
      <trkpt lat="42.495478" lon="-2.710646">
        <ele>443.237</ele>
        <time>2014-01-07T14:14:35Z</time>
      </trkpt>
      <trkpt lat="42.494938" lon="-2.709366">
        <ele>440.678</ele>
        <time>2014-01-07T14:17:55Z</time>
      </trkpt>
      <trkpt lat="42.494918" lon="-2.708786">
        <ele>437.087</ele>
        <time>2014-01-07T14:18:15Z</time>
      </trkpt>
      <trkpt lat="42.496018" lon="-2.703636">
        <ele>435.336</ele>
        <time>2014-01-07T14:27:55Z</time>
      </trkpt>
      <trkpt lat="42.496078" lon="-2.701636">
        <ele>433.825</ele>
        <time>2014-01-07T14:28:55Z</time>
      </trkpt>
      <trkpt lat="42.496568" lon="-2.699256">
        <ele>433.333</ele>
        <time>2014-01-07T14:36:35Z</time>
      </trkpt>
      <trkpt lat="42.497448" lon="-2.697496">
        <ele>435.477</ele>
        <time>2014-01-07T14:42:35Z</time>
      </trkpt>
      <trkpt lat="42.498568" lon="-2.695866">
        <ele>433.761</ele>
        <time>2014-01-07T14:43:35Z</time>
      </trkpt>
      <trkpt lat="42.498958" lon="-2.695026">
        <ele>433.927</ele>
        <time>2014-01-07T14:44:15Z</time>
      </trkpt>
      <trkpt lat="42.499298" lon="-2.693696">
        <ele>431.907</ele>
        <time>2014-01-07T14:44:55Z</time>
      </trkpt>
      <trkpt lat="42.500438" lon="-2.691726">
        <ele>431.342</ele>
        <time>2014-01-07T14:50:15Z</time>
      </trkpt>
      <trkpt lat="42.501058" lon="-2.689796">
        <ele>430.356</ele>
        <time>2014-01-07T14:54:35Z</time>
      </trkpt>
      <trkpt lat="42.501338" lon="-2.687536">
        <ele>429.187</ele>
        <time>2014-01-07T14:59:55Z</time>
      </trkpt>
      <trkpt lat="42.501768" lon="-2.686356">
        <ele>429.366</ele>
        <time>2014-01-07T15:04:35Z</time>
      </trkpt>
      <trkpt lat="42.501378" lon="-2.687346">
        <ele>429.835</ele>
        <time>2014-01-07T15:06:55Z</time>
      </trkpt>
      <trkpt lat="42.501018" lon="-2.689836">
        <ele>429.744</ele>
        <time>2014-01-07T15:09:15Z</time>
      </trkpt>
      <trkpt lat="42.500608" lon="-2.691336">
        <ele>431.322</ele>
        <time>2014-01-07T15:14:15Z</time>
      </trkpt>
      <trkpt lat="42.499168" lon="-2.693956">
        <ele>431.544</ele>
        <time>2014-01-07T15:15:15Z</time>
      </trkpt>
      <trkpt lat="42.498958" lon="-2.695026">
        <ele>433.905</ele>
        <time>2014-01-07T15:15:35Z</time>
      </trkpt>
      <trkpt lat="42.496848" lon="-2.698596">
        <ele>432.315</ele>
        <time>2014-01-07T15:16:55Z</time>
      </trkpt>
      <trkpt lat="42.496188" lon="-2.700716">
        <ele>433.407</ele>
        <time>2014-01-07T15:17:35Z</time>
      </trkpt>
      <trkpt lat="42.496038" lon="-2.703396">
        <ele>435.579</ele>
        <time>2014-01-07T15:18:15Z</time>
      </trkpt>
      <trkpt lat="42.494898" lon="-2.708916">
        <ele>437.443</ele>
        <time>2014-01-07T15:19:55Z</time>
      </trkpt>
      <trkpt lat="42.495478" lon="-2.710676">
        <ele>443.274</ele>
        <time>2014-01-07T15:20:35Z</time>
      </trkpt>
      <trkpt lat="42.495288" lon="-2.711787">
        <ele>444.133</ele>
        <time>2014-01-07T15:20:55Z</time>
      </trkpt>
      <trkpt lat="42.494968" lon="-2.712627">
        <ele>443.542</ele>
        <time>2014-01-07T15:21:35Z</time>
      </trkpt>
      <trkpt lat="42.494858" lon="-2.712607">
        <ele>442.091</ele>
        <time>2014-01-07T15:21:55Z</time>
      </trkpt>
      <trkpt lat="42.494938" lon="-2.712777">
        <ele>443.119</ele>
        <time>2014-01-07T15:23:15Z</time>
      </trkpt>
      <trkpt lat="42.493938" lon="-2.711897">
        <ele>440.665</ele>
        <time>2014-01-07T15:26:55Z</time>
      </trkpt>
      <trkpt lat="42.493528" lon="-2.711937">
        <ele>439.468</ele>
        <time>2014-01-07T15:29:55Z</time>
      </trkpt>
      <trkpt lat="42.491428" lon="-2.708546">
        <ele>434.114</ele>
        <time>2014-01-07T15:32:35Z</time>
      </trkpt>
      <trkpt lat="42.491598" lon="-2.708486">
        <ele>434.407</ele>
        <time>2014-01-07T15:32:55Z</time>
      </trkpt>
      <trkpt lat="42.491338" lon="-2.708416">
        <ele>434.071</ele>
        <time>2014-01-07T15:35:15Z</time>
      </trkpt>
      <trkpt lat="42.491038" lon="-2.707966">
        <ele>433.635</ele>
        <time>2014-01-07T15:35:55Z</time>
      </trkpt>
      <trkpt lat="42.491188" lon="-2.707866">
        <ele>433.366</ele>
        <time>2014-01-07T15:36:35Z</time>
      </trkpt>
      <trkpt lat="42.490948" lon="-2.707836">
        <ele>433.665</ele>
        <time>2014-01-07T15:42:15Z</time>
      </trkpt>
      <trkpt lat="42.490308" lon="-2.706876">
        <ele>433.094</ele>
        <time>2014-01-07T15:43:15Z</time>
      </trkpt>
      <trkpt lat="42.488288" lon="-2.703446">
        <ele>432.683</ele>
        <time>2014-01-07T15:57:55Z</time>
      </trkpt>
      <trkpt lat="42.488208" lon="-2.703866">
        <ele>432.651</ele>
        <time>2014-01-07T15:58:35Z</time>
      </trkpt>
      <trkpt lat="42.488698" lon="-2.703896">
        <ele>434.116</ele>
        <time>2014-01-07T15:58:55Z</time>
      </trkpt>
      <trkpt lat="42.491018" lon="-2.707606">
        <ele>432.976</ele>
        <time>2014-01-07T16:03:15Z</time>
      </trkpt>
      <trkpt lat="42.490848" lon="-2.707686">
        <ele>433.913</ele>
        <time>2014-01-07T16:05:35Z</time>
      </trkpt>
      <trkpt lat="42.491018" lon="-2.707606">
        <ele>432.907</ele>
        <time>2014-01-07T16:06:55Z</time>
      </trkpt>
      <trkpt lat="42.490628" lon="-2.708246">
        <ele>432.856</ele>
        <time>2014-01-07T16:07:15Z</time>
      </trkpt>
      <trkpt lat="42.489038" lon="-2.708916">
        <ele>433.160</ele>
        <time>2014-01-07T16:08:55Z</time>
      </trkpt>
      <trkpt lat="42.487538" lon="-2.710327">
        <ele>434.361</ele>
        <time>2014-01-07T16:09:55Z</time>
      </trkpt>
      <trkpt lat="42.485518" lon="-2.711377">
        <ele>436.830</ele>
        <time>2014-01-07T16:11:15Z</time>
      </trkpt>
      <trkpt lat="42.484968" lon="-2.712457">
        <ele>438.869</ele>
        <time>2014-01-07T16:17:55Z</time>
      </trkpt>
      <trkpt lat="42.484968" lon="-2.712737">
        <ele>439.058</ele>
        <time>2014-01-07T16:18:15Z</time>
      </trkpt>
      <trkpt lat="42.485588" lon="-2.713937">
        <ele>438.986</ele>
        <time>2014-01-07T16:18:55Z</time>
      </trkpt>
      <trkpt lat="42.485948" lon="-2.715997">
        <ele>439.063</ele>
        <time>2014-01-07T16:23:15Z</time>
      </trkpt>
      <trkpt lat="42.486618" lon="-2.718437">
        <ele>442.844</ele>
        <time>2014-01-07T16:26:15Z</time>
      </trkpt>
      <trkpt lat="42.486678" lon="-2.719037">
        <ele>444.118</ele>
        <time>2014-01-07T16:28:55Z</time>
      </trkpt>
      <trkpt lat="42.486448" lon="-2.720527">
        <ele>449.007</ele>
        <time>2014-01-07T16:32:35Z</time>
      </trkpt>
      <trkpt lat="42.486488" lon="-2.722067">
        <ele>452.521</ele>
        <time>2014-01-07T16:33:15Z</time>
      </trkpt>
      <trkpt lat="42.487028" lon="-2.725477">
        <ele>457.075</ele>
        <time>2014-01-07T16:43:55Z</time>
      </trkpt>
      <trkpt lat="42.487688" lon="-2.727217">
        <ele>462.046</ele>
        <time>2014-01-07T16:44:35Z</time>
      </trkpt>
      <trkpt lat="42.488058" lon="-2.729187">
        <ele>465.125</ele>
        <time>2014-01-07T16:48:15Z</time>
      </trkpt>
      <trkpt lat="42.489038" lon="-2.730367">
        <ele>468.774</ele>
        <time>2014-01-07T16:49:15Z</time>
      </trkpt>
      <trkpt lat="42.489598" lon="-2.731977">
        <ele>476.423</ele>
        <time>2014-01-07T16:51:55Z</time>
      </trkpt>
      <trkpt lat="42.490398" lon="-2.733097">
        <ele>477.411</ele>
        <time>2014-01-07T16:52:55Z</time>
      </trkpt>
      <trkpt lat="42.491998" lon="-2.737577">
        <ele>490.263</ele>
        <time>2014-01-07T17:00:35Z</time>
      </trkpt>
      <trkpt lat="42.492578" lon="-2.739747">
        <ele>503.244</ele>
        <time>2014-01-07T17:02:55Z</time>
      </trkpt>
      <trkpt lat="42.492988" lon="-2.740177">
        <ele>506.918</ele>
        <time>2014-01-07T17:11:35Z</time>
      </trkpt>
      <trkpt lat="42.493328" lon="-2.740847">
        <ele>504.007</ele>
        <time>2014-01-07T17:11:55Z</time>
      </trkpt>
      <trkpt lat="42.494188" lon="-2.740867">
        <ele>500.081</ele>
        <time>2014-01-07T17:18:15Z</time>
      </trkpt>
      <trkpt lat="42.494318" lon="-2.741097">
        <ele>499.975</ele>
        <time>2014-01-07T17:21:15Z</time>
      </trkpt>
      <trkpt lat="42.494858" lon="-2.740887">
        <ele>496.776</ele>
        <time>2014-01-07T17:21:35Z</time>
      </trkpt>
      <trkpt lat="42.495478" lon="-2.740907">
        <ele>494.525</ele>
        <time>2014-01-07T17:21:55Z</time>
      </trkpt>
      <trkpt lat="42.496098" lon="-2.741877">
        <ele>498.814</ele>
        <time>2014-01-07T17:22:15Z</time>
      </trkpt>
      <trkpt lat="42.496658" lon="-2.742147">
        <ele>497.513</ele>
        <time>2014-01-07T17:22:35Z</time>
      </trkpt>
      <trkpt lat="42.497068" lon="-2.742537">
        <ele>496.591</ele>
        <time>2014-01-07T17:22:55Z</time>
      </trkpt>
      <trkpt lat="42.497538" lon="-2.743247">
        <ele>498.376</ele>
        <time>2014-01-07T17:23:35Z</time>
      </trkpt>
      <trkpt lat="42.497368" lon="-2.743137">
        <ele>497.990</ele>
        <time>2014-01-07T17:24:35Z</time>
      </trkpt>
      <trkpt lat="42.498028" lon="-2.743327">
        <ele>498.919</ele>
        <time>2014-01-07T17:28:55Z</time>
      </trkpt>
      <trkpt lat="42.498958" lon="-2.745266">
        <ele>509.007</ele>
        <time>2014-01-07T17:32:55Z</time>
      </trkpt>
      <trkpt lat="42.498938" lon="-2.747177">
        <ele>519.732</ele>
        <time>2014-01-07T17:38:35Z</time>
      </trkpt>
    </trkseg>
  </trk></gpx>